sensor_id;sensor_type;location;lat;lon;timestamp;P1;durP1;ratioP1;P2;durP2;ratioP2
46701;SDS011;33449;50.712;7.124;2023-01-20T00:29:40;21.35;;;8.82;;
46701;SDS011;33449;50.712;7.124;2023-01-20T01:43:58;17.65;;;9.23;;
46701;SDS011;33449;50.712;7.124;2023-01-20T05:16:33;22.85;;;9.38;;
46701;SDS011;33449;50.712;7.124;2023-01-20T09:00:20;25.65;;;12.43;;
46701;SDS011;33449;50.712;7.124;2023-01-20T09:02:47;27.77;;;14.05;;
46701;SDS011;33449;50.712;7.124;2023-01-20T09:05:14;25.92;;;13.50;;
46701;SDS011;33449;50.712;7.124;2023-01-20T09:07:42;28.48;;;11.93;;
46701;SDS011;33449;50.712;7.124;2023-01-20T09:10:10;26.88;;;13.07;;
46701;SDS011;33449;50.712;7.124;2023-01-20T09:12:37;20.90;;;11.60;;
46701;SDS011;33449;50.712;7.124;2023-01-20T09:15:05;28.70;;;12.60;;
46701;SDS011;33449;50.712;7.124;2023-01-20T09:17:35;32.42;;;12.32;;
46701;SDS011;33449;50.712;7.124;2023-01-20T09:20:03;24.13;;;10.95;;
46701;SDS011;33449;50.712;7.124;2023-01-20T09:22:30;21.45;;;10.70;;
46701;SDS011;33449;50.712;7.124;2023-01-20T09:24:57;25.23;;;10.80;;
46701;SDS011;33449;50.712;7.124;2023-01-20T09:27:25;26.77;;;11.43;;
46701;SDS011;33449;50.712;7.124;2023-01-20T09:29:52;19.52;;;11.65;;
46701;SDS011;33449;50.712;7.124;2023-01-20T09:32:21;21.95;;;11.27;;
46701;SDS011;33449;50.712;7.124;2023-01-20T09:34:48;24.45;;;10.32;;
46701;SDS011;33449;50.712;7.124;2023-01-20T09:37:15;18.65;;;9.80;;
46701;SDS011;33449;50.712;7.124;2023-01-20T09:40:02;19.80;;;11.18;;
46701;SDS011;33449;50.712;7.124;2023-01-20T09:45:45;26.50;;;11.50;;
46701;SDS011;33449;50.712;7.124;2023-01-20T09:51:19;15.93;;;8.38;;
46701;SDS011;33449;50.712;7.124;2023-01-20T09:54:19;18.05;;;9.18;;
46701;SDS011;33449;50.712;7.124;2023-01-20T09:56:48;20.92;;;9.05;;
46701;SDS011;33449;50.712;7.124;2023-01-20T10:01:55;19.75;;;10.27;;
46701;SDS011;33449;50.712;7.124;2023-01-20T10:06:55;24.25;;;10.82;;
46701;SDS011;33449;50.712;7.124;2023-01-20T10:09:29;24.77;;;9.50;;
46701;SDS011;33449;50.712;7.124;2023-01-20T10:12:18;22.50;;;10.20;;
46701;SDS011;33449;50.712;7.124;2023-01-20T10:14:54;16.33;;;8.93;;
46701;SDS011;33449;50.712;7.124;2023-01-20T10:17:26;22.35;;;10.02;;
46701;SDS011;33449;50.712;7.124;2023-01-20T10:20:13;14.43;;;7.97;;
46701;SDS011;33449;50.712;7.124;2023-01-20T10:22:43;19.10;;;10.35;;
46701;SDS011;33449;50.712;7.124;2023-01-20T10:25:12;22.35;;;10.80;;
46701;SDS011;33449;50.712;7.124;2023-01-20T10:27:47;18.23;;;9.48;;
46701;SDS011;33449;50.712;7.124;2023-01-20T10:30:16;20.75;;;10.13;;
46701;SDS011;33449;50.712;7.124;2023-01-20T10:32:47;23.23;;;10.50;;
46701;SDS011;33449;50.712;7.124;2023-01-20T10:35:17;21.33;;;10.38;;
46701;SDS011;33449;50.712;7.124;2023-01-20T10:37:45;23.00;;;11.82;;
46701;SDS011;33449;50.712;7.124;2023-01-20T10:43:03;21.60;;;10.77;;
46701;SDS011;33449;50.712;7.124;2023-01-20T10:45:50;21.25;;;10.57;;
46701;SDS011;33449;50.712;7.124;2023-01-20T10:53:31;15.90;;;8.20;;
46701;SDS011;33449;50.712;7.124;2023-01-20T10:56:06;16.80;;;8.40;;
46701;SDS011;33449;50.712;7.124;2023-01-20T10:58:36;15.50;;;9.35;;
46701;SDS011;33449;50.712;7.124;2023-01-20T11:01:05;17.10;;;8.98;;
46701;SDS011;33449;50.712;7.124;2023-01-20T11:03:39;19.08;;;9.93;;
46701;SDS011;33449;50.712;7.124;2023-01-20T11:06:10;21.13;;;9.40;;
46701;SDS011;33449;50.712;7.124;2023-01-20T11:08:42;18.83;;;9.43;;
46701;SDS011;33449;50.712;7.124;2023-01-20T11:11:11;19.90;;;9.40;;
46701;SDS011;33449;50.712;7.124;2023-01-20T11:13:39;16.98;;;6.88;;
46701;SDS011;33449;50.712;7.124;2023-01-20T11:16:22;16.02;;;8.45;;
46701;SDS011;33449;50.712;7.124;2023-01-20T11:21:30;23.25;;;11.18;;
46701;SDS011;33449;50.712;7.124;2023-01-20T11:23:59;18.77;;;9.90;;
46701;SDS011;33449;50.712;7.124;2023-01-20T11:26:27;20.23;;;9.90;;
46701;SDS011;33449;50.712;7.124;2023-01-20T11:29:02;25.13;;;10.70;;
46701;SDS011;33449;50.712;7.124;2023-01-20T11:31:40;25.17;;;10.73;;
46701;SDS011;33449;50.712;7.124;2023-01-20T11:39:36;20.38;;;8.93;;
46701;SDS011;33449;50.712;7.124;2023-01-20T11:44:56;20.10;;;8.55;;
46701;SDS011;33449;50.712;7.124;2023-01-20T11:47:44;17.27;;;9.63;;
46701;SDS011;33449;50.712;7.124;2023-01-20T11:50:18;18.50;;;7.95;;
46701;SDS011;33449;50.712;7.124;2023-01-20T11:52:46;17.75;;;8.80;;
46701;SDS011;33449;50.712;7.124;2023-01-20T11:55:22;20.98;;;8.57;;
46701;SDS011;33449;50.712;7.124;2023-01-20T12:02:59;18.45;;;8.73;;
46701;SDS011;33449;50.712;7.124;2023-01-20T12:07:56;14.73;;;6.90;;
46701;SDS011;33449;50.712;7.124;2023-01-20T12:10:26;19.15;;;9.02;;
46701;SDS011;33449;50.712;7.124;2023-01-20T12:21:12;18.00;;;8.73;;
46701;SDS011;33449;50.712;7.124;2023-01-20T12:26:19;14.90;;;7.50;;
46701;SDS011;33449;50.712;7.124;2023-01-20T12:31:17;20.27;;;9.13;;
46701;SDS011;33449;50.712;7.124;2023-01-20T12:33:49;18.33;;;8.77;;
46701;SDS011;33449;50.712;7.124;2023-01-20T12:41:42;22.38;;;8.13;;
46701;SDS011;33449;50.712;7.124;2023-01-20T12:44:22;14.52;;;7.40;;
46701;SDS011;33449;50.712;7.124;2023-01-20T12:46:51;21.48;;;9.77;;
46701;SDS011;33449;50.712;7.124;2023-01-20T12:49:26;18.80;;;8.50;;
46701;SDS011;33449;50.712;7.124;2023-01-20T13:05:52;24.23;;;10.55;;
46701;SDS011;33449;50.712;7.124;2023-01-20T13:11:45;17.98;;;9.80;;
46701;SDS011;33449;50.712;7.124;2023-01-20T13:14:14;20.08;;;9.43;;
46701;SDS011;33449;50.712;7.124;2023-01-20T13:16:52;24.20;;;10.25;;
46701;SDS011;33449;50.712;7.124;2023-01-20T13:19:27;22.67;;;10.93;;
46701;SDS011;33449;50.712;7.124;2023-01-20T13:21:55;15.77;;;7.43;;
46701;SDS011;33449;50.712;7.124;2023-01-20T13:33:01;25.23;;;10.45;;
46701;SDS011;33449;50.712;7.124;2023-01-20T13:37:58;24.08;;;11.32;;
46701;SDS011;33449;50.712;7.124;2023-01-20T13:42:58;28.30;;;12.23;;
46701;SDS011;33449;50.712;7.124;2023-01-20T13:50:51;23.60;;;12.07;;
46701;SDS011;33449;50.712;7.124;2023-01-20T13:58:20;41.15;;;13.48;;
46701;SDS011;33449;50.712;7.124;2023-01-20T14:00:51;27.17;;;13.63;;
46701;SDS011;33449;50.712;7.124;2023-01-20T14:08:22;26.25;;;12.65;;
46701;SDS011;33449;50.712;7.124;2023-01-20T14:10:50;32.67;;;14.63;;
46701;SDS011;33449;50.712;7.124;2023-01-20T14:13:22;37.42;;;15.02;;
46701;SDS011;33449;50.712;7.124;2023-01-20T14:15:51;25.65;;;13.23;;
46701;SDS011;33449;50.712;7.124;2023-01-20T14:20:59;37.70;;;16.55;;
46701;SDS011;33449;50.712;7.124;2023-01-20T14:23:45;35.25;;;16.98;;
46701;SDS011;33449;50.712;7.124;2023-01-20T14:26:28;31.52;;;16.25;;
46701;SDS011;33449;50.712;7.124;2023-01-20T14:29:00;41.25;;;16.73;;
46701;SDS011;33449;50.712;7.124;2023-01-20T14:34:27;45.65;;;18.63;;
46701;SDS011;33449;50.712;7.124;2023-01-20T14:37:21;37.97;;;17.08;;
46701;SDS011;33449;50.712;7.124;2023-01-20T14:39:59;38.08;;;18.58;;
46701;SDS011;33449;50.712;7.124;2023-01-20T14:42:41;43.55;;;20.10;;
46701;SDS011;33449;50.712;7.124;2023-01-20T14:53:39;40.33;;;18.90;;
46701;SDS011;33449;50.712;7.124;2023-01-20T14:56:22;41.08;;;17.45;;
46701;SDS011;33449;50.712;7.124;2023-01-20T14:59:03;33.08;;;16.98;;
46701;SDS011;33449;50.712;7.124;2023-01-20T15:01:58;25.50;;;12.55;;
46701;SDS011;33449;50.712;7.124;2023-01-20T15:04:58;37.53;;;17.08;;
46701;SDS011;33449;50.712;7.124;2023-01-20T15:07:39;36.72;;;17.75;;
46701;SDS011;33449;50.712;7.124;2023-01-20T15:10:21;34.25;;;16.40;;
46701;SDS011;33449;50.712;7.124;2023-01-20T15:13:02;38.53;;;16.58;;
46701;SDS011;33449;50.712;7.124;2023-01-20T15:15:46;37.80;;;17.00;;
46701;SDS011;33449;50.712;7.124;2023-01-20T15:23:53;36.85;;;14.35;;
46701;SDS011;33449;50.712;7.124;2023-01-20T15:29:31;35.63;;;15.00;;
46701;SDS011;33449;50.712;7.124;2023-01-20T15:32:17;33.47;;;16.90;;
46701;SDS011;33449;50.712;7.124;2023-01-20T15:35:19;35.55;;;16.55;;
46701;SDS011;33449;50.712;7.124;2023-01-20T15:38:01;35.20;;;16.70;;
46701;SDS011;33449;50.712;7.124;2023-01-20T15:40:48;38.70;;;17.90;;
46701;SDS011;33449;50.712;7.124;2023-01-20T15:51:39;33.25;;;14.88;;
46701;SDS011;33449;50.712;7.124;2023-01-20T15:54:24;30.65;;;15.48;;
46701;SDS011;33449;50.712;7.124;2023-01-20T16:02:38;29.25;;;14.13;;
46701;SDS011;33449;50.712;7.124;2023-01-20T16:05:36;29.13;;;14.02;;
46701;SDS011;33449;50.712;7.124;2023-01-20T16:11:09;22.75;;;12.18;;
46701;SDS011;33449;50.712;7.124;2023-01-20T16:14:22;23.98;;;12.50;;
46701;SDS011;33449;50.712;7.124;2023-01-20T16:17:14;23.98;;;12.77;;
46701;SDS011;33449;50.712;7.124;2023-01-20T16:19:55;24.38;;;11.52;;
46701;SDS011;33449;50.712;7.124;2023-01-20T16:22:42;20.90;;;10.38;;
46701;SDS011;33449;50.712;7.124;2023-01-20T16:25:26;24.45;;;10.63;;
46701;SDS011;33449;50.712;7.124;2023-01-20T16:28:14;17.38;;;7.40;;
46701;SDS011;33449;50.712;7.124;2023-01-20T16:30:57;17.02;;;8.68;;
46701;SDS011;33449;50.712;7.124;2023-01-20T16:33:41;16.05;;;8.32;;
46701;SDS011;33449;50.712;7.124;2023-01-20T16:36:23;16.42;;;8.60;;
46701;SDS011;33449;50.712;7.124;2023-01-20T16:39:04;16.42;;;8.73;;
46701;SDS011;33449;50.712;7.124;2023-01-20T16:44:16;18.45;;;8.50;;
46701;SDS011;33449;50.712;7.124;2023-01-20T16:46:59;17.33;;;8.38;;
46701;SDS011;33449;50.712;7.124;2023-01-20T16:49:41;15.55;;;7.78;;
46701;SDS011;33449;50.712;7.124;2023-01-20T16:52:32;15.55;;;8.57;;
46701;SDS011;33449;50.712;7.124;2023-01-20T16:55:16;16.02;;;8.07;;
46701;SDS011;33449;50.712;7.124;2023-01-20T16:58:06;13.98;;;7.65;;
46701;SDS011;33449;50.712;7.124;2023-01-20T17:00:47;14.88;;;7.28;;
46701;SDS011;33449;50.712;7.124;2023-01-20T17:03:43;12.25;;;6.50;;
46701;SDS011;33449;50.712;7.124;2023-01-20T17:06:29;13.73;;;7.80;;
46701;SDS011;33449;50.712;7.124;2023-01-20T17:09:10;16.02;;;8.43;;
46701;SDS011;33449;50.712;7.124;2023-01-20T17:20:16;20.73;;;9.38;;
46701;SDS011;33449;50.712;7.124;2023-01-20T17:22:57;17.65;;;9.52;;
46701;SDS011;33449;50.712;7.124;2023-01-20T17:25:42;15.15;;;8.88;;
46701;SDS011;33449;50.712;7.124;2023-01-20T17:28:23;18.90;;;10.52;;
46701;SDS011;33449;50.712;7.124;2023-01-20T17:31:07;20.25;;;10.93;;
46701;SDS011;33449;50.712;7.124;2023-01-20T17:33:53;21.50;;;11.18;;
46701;SDS011;33449;50.712;7.124;2023-01-20T17:36:34;23.83;;;10.90;;
46701;SDS011;33449;50.712;7.124;2023-01-20T17:39:18;21.08;;;10.77;;
46701;SDS011;33449;50.712;7.124;2023-01-20T17:41:59;21.45;;;10.88;;
46701;SDS011;33449;50.712;7.124;2023-01-20T17:50:03;22.02;;;11.65;;
46701;SDS011;33449;50.712;7.124;2023-01-20T17:52:44;17.77;;;9.68;;
46701;SDS011;33449;50.712;7.124;2023-01-20T17:55:28;23.60;;;10.38;;
46701;SDS011;33449;50.712;7.124;2023-01-20T17:58:15;23.20;;;11.02;;
46701;SDS011;33449;50.712;7.124;2023-01-20T18:00:56;20.38;;;10.43;;
46701;SDS011;33449;50.712;7.124;2023-01-20T18:03:43;20.33;;;10.75;;
46701;SDS011;33449;50.712;7.124;2023-01-20T18:06:26;19.38;;;11.55;;
46701;SDS011;33449;50.712;7.124;2023-01-20T18:09:10;21.45;;;11.07;;
46701;SDS011;33449;50.712;7.124;2023-01-20T18:11:52;25.90;;;11.15;;
46701;SDS011;33449;50.712;7.124;2023-01-20T18:19:56;19.38;;;11.13;;
46701;SDS011;33449;50.712;7.124;2023-01-20T18:22:37;25.27;;;13.07;;
46701;SDS011;33449;50.712;7.124;2023-01-20T18:25:12;21.10;;;11.90;;
46701;SDS011;33449;50.712;7.124;2023-01-20T18:27:56;20.30;;;11.35;;
46701;SDS011;33449;50.712;7.124;2023-01-20T18:30:37;19.90;;;11.82;;
46701;SDS011;33449;50.712;7.124;2023-01-20T18:35:43;23.02;;;11.73;;
46701;SDS011;33449;50.712;7.124;2023-01-20T18:38:26;22.17;;;12.25;;
46701;SDS011;33449;50.712;7.124;2023-01-20T18:44:04;23.17;;;12.95;;
46701;SDS011;33449;50.712;7.124;2023-01-20T18:46:56;21.52;;;10.82;;
46701;SDS011;33449;50.712;7.124;2023-01-20T18:49:38;19.13;;;11.95;;
46701;SDS011;33449;50.712;7.124;2023-01-20T19:09:02;24.23;;;12.20;;
46701;SDS011;33449;50.712;7.124;2023-01-20T19:11:43;28.92;;;13.75;;
46701;SDS011;33449;50.712;7.124;2023-01-20T19:14:24;27.27;;;14.68;;
46701;SDS011;33449;50.712;7.124;2023-01-20T19:22:49;28.85;;;15.63;;
46701;SDS011;33449;50.712;7.124;2023-01-20T19:25:40;24.23;;;12.85;;
46701;SDS011;33449;50.712;7.124;2023-01-20T19:28:21;31.98;;;14.73;;
46701;SDS011;33449;50.712;7.124;2023-01-20T19:33:45;25.92;;;14.13;;
46701;SDS011;33449;50.712;7.124;2023-01-20T19:36:23;30.38;;;14.02;;
46701;SDS011;33449;50.712;7.124;2023-01-20T19:39:05;36.00;;;15.57;;
46701;SDS011;33449;50.712;7.124;2023-01-20T19:41:34;30.17;;;15.27;;
46701;SDS011;33449;50.712;7.124;2023-01-20T19:44:17;33.17;;;15.65;;
46701;SDS011;33449;50.712;7.124;2023-01-20T19:46:54;33.33;;;15.68;;
46701;SDS011;33449;50.712;7.124;2023-01-20T19:49:37;32.72;;;16.70;;
46701;SDS011;33449;50.712;7.124;2023-01-20T19:52:05;33.97;;;17.17;;
46701;SDS011;33449;50.712;7.124;2023-01-20T19:54:39;34.15;;;17.52;;
46701;SDS011;33449;50.712;7.124;2023-01-20T19:57:08;35.20;;;17.60;;
46701;SDS011;33449;50.712;7.124;2023-01-20T19:59:43;33.20;;;19.17;;
46701;SDS011;33449;50.712;7.124;2023-01-20T20:02:11;30.58;;;16.30;;
46701;SDS011;33449;50.712;7.124;2023-01-20T20:04:39;29.38;;;15.23;;
46701;SDS011;33449;50.712;7.124;2023-01-20T20:07:11;40.05;;;16.70;;
46701;SDS011;33449;50.712;7.124;2023-01-20T20:09:54;31.60;;;16.08;;
46701;SDS011;33449;50.712;7.124;2023-01-20T20:12:22;33.05;;;17.23;;
46701;SDS011;33449;50.712;7.124;2023-01-20T20:14:57;33.78;;;17.10;;
46701;SDS011;33449;50.712;7.124;2023-01-20T20:17:25;31.63;;;16.95;;
46701;SDS011;33449;50.712;7.124;2023-01-20T20:22:31;29.88;;;15.70;;
46701;SDS011;33449;50.712;7.124;2023-01-20T20:24:58;35.28;;;17.23;;
46701;SDS011;33449;50.712;7.124;2023-01-20T20:27:36;32.70;;;16.58;;
46701;SDS011;33449;50.712;7.124;2023-01-20T20:30:14;34.17;;;17.20;;
46701;SDS011;33449;50.712;7.124;2023-01-20T20:32:45;33.15;;;16.13;;
46701;SDS011;33449;50.712;7.124;2023-01-20T20:35:15;32.60;;;16.08;;
46701;SDS011;33449;50.712;7.124;2023-01-20T20:40:24;28.55;;;15.43;;
46701;SDS011;33449;50.712;7.124;2023-01-20T20:42:59;34.13;;;16.58;;
46701;SDS011;33449;50.712;7.124;2023-01-20T20:45:32;36.03;;;19.15;;
46701;SDS011;33449;50.712;7.124;2023-01-20T20:48:14;36.00;;;18.38;;
46701;SDS011;33449;50.712;7.124;2023-01-20T20:50:41;34.88;;;17.50;;
46701;SDS011;33449;50.712;7.124;2023-01-20T20:53:11;36.47;;;16.65;;
46701;SDS011;33449;50.712;7.124;2023-01-20T20:58:22;37.17;;;18.73;;
46701;SDS011;33449;50.712;7.124;2023-01-20T21:00:51;42.60;;;18.73;;
46701;SDS011;33449;50.712;7.124;2023-01-20T21:03:22;45.63;;;22.48;;
46701;SDS011;33449;50.712;7.124;2023-01-20T21:06:03;46.88;;;22.95;;
46701;SDS011;33449;50.712;7.124;2023-01-20T21:08:45;60.47;;;21.20;;
46701;SDS011;33449;50.712;7.124;2023-01-20T21:11:27;44.63;;;23.00;;
46701;SDS011;33449;50.712;7.124;2023-01-20T21:19:26;56.13;;;23.98;;
46701;SDS011;33449;50.712;7.124;2023-01-20T21:21:54;51.75;;;22.67;;
46701;SDS011;33449;50.712;7.124;2023-01-20T21:24:21;53.38;;;22.92;;
46701;SDS011;33449;50.712;7.124;2023-01-20T21:26:52;48.60;;;24.27;;
46701;SDS011;33449;50.712;7.124;2023-01-20T21:29:33;50.88;;;22.65;;
46701;SDS011;33449;50.712;7.124;2023-01-20T21:32:00;49.22;;;24.83;;
46701;SDS011;33449;50.712;7.124;2023-01-20T21:34:28;52.00;;;23.25;;
46701;SDS011;33449;50.712;7.124;2023-01-20T21:37:20;50.53;;;22.25;;
46701;SDS011;33449;50.712;7.124;2023-01-20T21:39:49;53.35;;;23.75;;
46701;SDS011;33449;50.712;7.124;2023-01-20T21:42:33;49.53;;;23.00;;
46701;SDS011;33449;50.712;7.124;2023-01-20T21:45:10;52.97;;;23.13;;
46701;SDS011;33449;50.712;7.124;2023-01-20T21:47:51;45.08;;;21.30;;
46701;SDS011;33449;50.712;7.124;2023-01-20T21:50:32;53.33;;;23.23;;
46701;SDS011;33449;50.712;7.124;2023-01-20T21:53:19;45.00;;;20.17;;
46701;SDS011;33449;50.712;7.124;2023-01-20T21:58:15;47.95;;;22.60;;
46701;SDS011;33449;50.712;7.124;2023-01-20T22:00:43;51.67;;;22.17;;
46701;SDS011;33449;50.712;7.124;2023-01-20T22:03:14;51.13;;;24.90;;
46701;SDS011;33449;50.712;7.124;2023-01-20T22:05:42;49.20;;;22.65;;
46701;SDS011;33449;50.712;7.124;2023-01-20T22:08:13;46.40;;;21.63;;
46701;SDS011;33449;50.712;7.124;2023-01-20T22:16:10;48.58;;;21.75;;
46701;SDS011;33449;50.712;7.124;2023-01-20T22:18:40;45.78;;;21.90;;
46701;SDS011;33449;50.712;7.124;2023-01-20T22:21:11;45.90;;;22.60;;
46701;SDS011;33449;50.712;7.124;2023-01-20T22:23:40;48.10;;;21.08;;
46701;SDS011;33449;50.712;7.124;2023-01-20T22:26:07;42.05;;;20.58;;
46701;SDS011;33449;50.712;7.124;2023-01-20T22:28:36;47.47;;;21.03;;
46701;SDS011;33449;50.712;7.124;2023-01-20T22:31:10;46.08;;;22.42;;
46701;SDS011;33449;50.712;7.124;2023-01-20T22:33:39;44.25;;;20.35;;
46701;SDS011;33449;50.712;7.124;2023-01-20T22:36:06;42.35;;;19.80;;
46701;SDS011;33449;50.712;7.124;2023-01-20T22:38:36;52.47;;;21.07;;
46701;SDS011;33449;50.712;7.124;2023-01-20T22:41:04;47.60;;;22.30;;
46701;SDS011;33449;50.712;7.124;2023-01-20T22:46:07;48.90;;;22.27;;
46701;SDS011;33449;50.712;7.124;2023-01-20T22:48:34;51.40;;;23.17;;
46701;SDS011;33449;50.712;7.124;2023-01-20T22:51:04;51.10;;;24.63;;
46701;SDS011;33449;50.712;7.124;2023-01-20T22:53:35;50.65;;;23.25;;
46701;SDS011;33449;50.712;7.124;2023-01-20T23:03:55;47.58;;;23.30;;
46701;SDS011;33449;50.712;7.124;2023-01-20T23:06:23;56.92;;;22.42;;
46701;SDS011;33449;50.712;7.124;2023-01-20T23:08:51;63.95;;;26.90;;
46701;SDS011;33449;50.712;7.124;2023-01-20T23:11:19;57.97;;;25.55;;
46701;SDS011;33449;50.712;7.124;2023-01-20T23:14:00;54.97;;;24.45;;
46701;SDS011;33449;50.712;7.124;2023-01-20T23:19:04;59.30;;;25.92;;
46701;SDS011;33449;50.712;7.124;2023-01-20T23:21:31;55.30;;;22.95;;
46701;SDS011;33449;50.712;7.124;2023-01-20T23:24:00;53.40;;;24.00;;
46701;SDS011;33449;50.712;7.124;2023-01-20T23:26:29;45.35;;;20.52;;
46701;SDS011;33449;50.712;7.124;2023-01-20T23:28:59;54.22;;;23.45;;
46701;SDS011;33449;50.712;7.124;2023-01-20T23:31:28;56.55;;;25.67;;
46701;SDS011;33449;50.712;7.124;2023-01-20T23:33:59;54.20;;;23.10;;
46701;SDS011;33449;50.712;7.124;2023-01-20T23:36:26;50.50;;;23.17;;
46701;SDS011;33449;50.712;7.124;2023-01-20T23:38:54;55.72;;;25.13;;
46701;SDS011;33449;50.712;7.124;2023-01-20T23:41:23;49.83;;;24.48;;
46701;SDS011;33449;50.712;7.124;2023-01-20T23:43:50;58.25;;;25.05;;
46701;SDS011;33449;50.712;7.124;2023-01-20T23:48:46;55.95;;;25.10;;
46701;SDS011;33449;50.712;7.124;2023-01-20T23:51:13;53.50;;;24.20;;
46701;SDS011;33449;50.712;7.124;2023-01-20T23:53:41;52.28;;;22.38;;
46701;SDS011;33449;50.712;7.124;2023-01-20T23:56:11;56.08;;;22.50;;
46701;SDS011;33449;50.712;7.124;2023-01-20T23:58:56;51.05;;;22.42;;
